sensor_id;sensor_type;location;lat;lon;timestamp;P1;durP1;ratioP1;P2;durP2;ratioP2
11771;SDS011;12556;55.748;13.194;2022-11-20T00:00:17;6.17;;;5.53;;
11771;SDS011;12556;55.748;13.194;2022-11-20T00:02:44;4.97;;;4.50;;
11771;SDS011;12556;55.748;13.194;2022-11-20T00:05:10;5.47;;;5.03;;
11771;SDS011;12556;55.748;13.194;2022-11-20T00:07:37;5.33;;;4.83;;
11771;SDS011;12556;55.748;13.194;2022-11-20T00:10:04;7.23;;;6.60;;
11771;SDS011;12556;55.748;13.194;2022-11-20T00:12:33;8.33;;;7.50;;
11771;SDS011;12556;55.748;13.194;2022-11-20T00:15:00;8.63;;;6.67;;
11771;SDS011;12556;55.748;13.194;2022-11-20T00:17:27;6.20;;;5.60;;
11771;SDS011;12556;55.748;13.194;2022-11-20T00:19:54;6.87;;;5.67;;
11771;SDS011;12556;55.748;13.194;2022-11-20T00:22:20;9.60;;;4.83;;
11771;SDS011;12556;55.748;13.194;2022-11-20T00:24:47;9.70;;;4.87;;
11771;SDS011;12556;55.748;13.194;2022-11-20T00:27:16;6.07;;;5.57;;
11771;SDS011;12556;55.748;13.194;2022-11-20T00:29:44;6.50;;;5.87;;
11771;SDS011;12556;55.748;13.194;2022-11-20T00:32:11;5.03;;;3.83;;
11771;SDS011;12556;55.748;13.194;2022-11-20T00:34:38;3.53;;;2.53;;
11771;SDS011;12556;55.748;13.194;2022-11-20T00:37:05;2.20;;;2.00;;
11771;SDS011;12556;55.748;13.194;2022-11-20T00:39:32;2.17;;;2.03;;
11771;SDS011;12556;55.748;13.194;2022-11-20T00:41:58;2.30;;;2.00;;
11771;SDS011;12556;55.748;13.194;2022-11-20T00:44:25;2.07;;;1.90;;
11771;SDS011;12556;55.748;13.194;2022-11-20T00:46:53;2.63;;;2.43;;
11771;SDS011;12556;55.748;13.194;2022-11-20T00:49:20;2.80;;;2.60;;
11771;SDS011;12556;55.748;13.194;2022-11-20T00:51:47;3.20;;;2.93;;
11771;SDS011;12556;55.748;13.194;2022-11-20T00:54:14;3.43;;;3.13;;
11771;SDS011;12556;55.748;13.194;2022-11-20T00:56:41;2.37;;;2.17;;
11771;SDS011;12556;55.748;13.194;2022-11-20T00:59:09;2.50;;;2.27;;
11771;SDS011;12556;55.748;13.194;2022-11-20T01:01:36;1.97;;;1.87;;
11771;SDS011;12556;55.748;13.194;2022-11-20T01:04:05;4.67;;;2.07;;
11771;SDS011;12556;55.748;13.194;2022-11-20T01:06:32;1.83;;;1.73;;
11771;SDS011;12556;55.748;13.194;2022-11-20T01:09:01;2.27;;;1.80;;
11771;SDS011;12556;55.748;13.194;2022-11-20T01:11:31;2.17;;;1.93;;
11771;SDS011;12556;55.748;13.194;2022-11-20T01:13:59;1.93;;;1.73;;
11771;SDS011;12556;55.748;13.194;2022-11-20T01:16:27;1.53;;;1.43;;
11771;SDS011;12556;55.748;13.194;2022-11-20T01:18:56;1.63;;;1.53;;
11771;SDS011;12556;55.748;13.194;2022-11-20T01:21:26;1.73;;;1.63;;
11771;SDS011;12556;55.748;13.194;2022-11-20T01:23:55;1.80;;;1.70;;
11771;SDS011;12556;55.748;13.194;2022-11-20T01:26:23;2.13;;;2.00;;
11771;SDS011;12556;55.748;13.194;2022-11-20T01:28:53;1.70;;;1.60;;
11771;SDS011;12556;55.748;13.194;2022-11-20T01:31:22;1.50;;;1.40;;
11771;SDS011;12556;55.748;13.194;2022-11-20T01:33:51;1.80;;;1.60;;
11771;SDS011;12556;55.748;13.194;2022-11-20T01:36:19;1.70;;;1.60;;
11771;SDS011;12556;55.748;13.194;2022-11-20T01:38:51;1.50;;;1.40;;
11771;SDS011;12556;55.748;13.194;2022-11-20T01:41:19;1.57;;;1.47;;
11771;SDS011;12556;55.748;13.194;2022-11-20T01:44:01;1.50;;;1.40;;
11771;SDS011;12556;55.748;13.194;2022-11-20T01:46:29;1.50;;;1.40;;
11771;SDS011;12556;55.748;13.194;2022-11-20T01:48:58;3.00;;;1.40;;
11771;SDS011;12556;55.748;13.194;2022-11-20T01:51:28;1.67;;;1.57;;
11771;SDS011;12556;55.748;13.194;2022-11-20T01:54:00;1.50;;;1.40;;
11771;SDS011;12556;55.748;13.194;2022-11-20T01:56:30;1.70;;;1.27;;
11771;SDS011;12556;55.748;13.194;2022-11-20T01:58:59;1.67;;;1.57;;
11771;SDS011;12556;55.748;13.194;2022-11-20T02:01:30;2.10;;;2.00;;
11771;SDS011;12556;55.748;13.194;2022-11-20T02:03:57;2.57;;;2.37;;
11771;SDS011;12556;55.748;13.194;2022-11-20T02:06:25;3.67;;;2.20;;
11771;SDS011;12556;55.748;13.194;2022-11-20T02:08:55;2.53;;;2.10;;
11771;SDS011;12556;55.748;13.194;2022-11-20T02:11:23;4.60;;;2.03;;
11771;SDS011;12556;55.748;13.194;2022-11-20T02:13:49;1.70;;;1.50;;
11771;SDS011;12556;55.748;13.194;2022-11-20T02:16:17;3.10;;;1.80;;
11771;SDS011;12556;55.748;13.194;2022-11-20T02:18:48;2.70;;;2.07;;
11771;SDS011;12556;55.748;13.194;2022-11-20T02:21:23;2.77;;;1.67;;
11771;SDS011;12556;55.748;13.194;2022-11-20T02:24:02;1.77;;;1.67;;
11771;SDS011;12556;55.748;13.194;2022-11-20T02:26:33;1.50;;;1.40;;
11771;SDS011;12556;55.748;13.194;2022-11-20T02:29:03;1.53;;;1.43;;
11771;SDS011;12556;55.748;13.194;2022-11-20T02:31:33;1.40;;;1.30;;
11771;SDS011;12556;55.748;13.194;2022-11-20T02:34:03;1.63;;;1.53;;
11771;SDS011;12556;55.748;13.194;2022-11-20T02:36:30;2.20;;;1.70;;
11771;SDS011;12556;55.748;13.194;2022-11-20T02:38:59;3.10;;;1.70;;
11771;SDS011;12556;55.748;13.194;2022-11-20T02:41:31;1.83;;;1.73;;
11771;SDS011;12556;55.748;13.194;2022-11-20T02:43:59;1.83;;;1.73;;
11771;SDS011;12556;55.748;13.194;2022-11-20T02:46:26;2.30;;;2.10;;
11771;SDS011;12556;55.748;13.194;2022-11-20T02:48:57;5.80;;;2.97;;
11771;SDS011;12556;55.748;13.194;2022-11-20T02:51:24;3.77;;;3.33;;
11771;SDS011;12556;55.748;13.194;2022-11-20T02:53:51;3.60;;;2.53;;
11771;SDS011;12556;55.748;13.194;2022-11-20T02:56:18;2.90;;;2.70;;
11771;SDS011;12556;55.748;13.194;2022-11-20T02:58:46;3.40;;;3.10;;
11771;SDS011;12556;55.748;13.194;2022-11-20T03:01:13;2.63;;;2.07;;
11771;SDS011;12556;55.748;13.194;2022-11-20T03:03:40;2.07;;;1.97;;
11771;SDS011;12556;55.748;13.194;2022-11-20T03:06:07;1.90;;;1.60;;
11771;SDS011;12556;55.748;13.194;2022-11-20T03:08:35;1.80;;;1.70;;
11771;SDS011;12556;55.748;13.194;2022-11-20T03:11:02;1.53;;;1.43;;
11771;SDS011;12556;55.748;13.194;2022-11-20T03:13:30;1.77;;;1.60;;
11771;SDS011;12556;55.748;13.194;2022-11-20T03:15:58;1.60;;;1.50;;
11771;SDS011;12556;55.748;13.194;2022-11-20T03:18:32;1.67;;;1.57;;
11771;SDS011;12556;55.748;13.194;2022-11-20T03:20:59;2.30;;;2.10;;
11771;SDS011;12556;55.748;13.194;2022-11-20T03:23:26;2.40;;;2.20;;
11771;SDS011;12556;55.748;13.194;2022-11-20T03:25:55;1.97;;;1.87;;
11771;SDS011;12556;55.748;13.194;2022-11-20T03:28:22;2.37;;;2.17;;
11771;SDS011;12556;55.748;13.194;2022-11-20T03:30:49;2.60;;;2.40;;
11771;SDS011;12556;55.748;13.194;2022-11-20T03:33:17;2.60;;;2.40;;
11771;SDS011;12556;55.748;13.194;2022-11-20T03:35:44;1.90;;;1.80;;
11771;SDS011;12556;55.748;13.194;2022-11-20T03:38:11;2.07;;;1.97;;
11771;SDS011;12556;55.748;13.194;2022-11-20T03:40:38;1.60;;;1.50;;
11771;SDS011;12556;55.748;13.194;2022-11-20T03:43:04;4.27;;;2.20;;
11771;SDS011;12556;55.748;13.194;2022-11-20T03:45:31;1.87;;;1.77;;
11771;SDS011;12556;55.748;13.194;2022-11-20T03:47:58;1.97;;;1.70;;
11771;SDS011;12556;55.748;13.194;2022-11-20T03:50:26;1.63;;;1.53;;
11771;SDS011;12556;55.748;13.194;2022-11-20T03:52:53;1.73;;;1.63;;
11771;SDS011;12556;55.748;13.194;2022-11-20T03:55:20;1.40;;;1.30;;
11771;SDS011;12556;55.748;13.194;2022-11-20T03:57:47;2.07;;;1.87;;
11771;SDS011;12556;55.748;13.194;2022-11-20T04:00:14;2.03;;;1.90;;
11771;SDS011;12556;55.748;13.194;2022-11-20T04:02:41;3.60;;;3.30;;
11771;SDS011;12556;55.748;13.194;2022-11-20T04:05:08;3.37;;;3.07;;
11771;SDS011;12556;55.748;13.194;2022-11-20T04:07:36;4.00;;;3.60;;
11771;SDS011;12556;55.748;13.194;2022-11-20T04:10:03;4.23;;;3.83;;
11771;SDS011;12556;55.748;13.194;2022-11-20T04:12:31;4.23;;;3.87;;
11771;SDS011;12556;55.748;13.194;2022-11-20T04:14:58;4.50;;;4.10;;
11771;SDS011;12556;55.748;13.194;2022-11-20T04:17:25;2.80;;;2.60;;
11771;SDS011;12556;55.748;13.194;2022-11-20T04:19:52;2.07;;;1.87;;
11771;SDS011;12556;55.748;13.194;2022-11-20T04:22:21;2.03;;;1.83;;
11771;SDS011;12556;55.748;13.194;2022-11-20T04:24:49;2.17;;;2.00;;
11771;SDS011;12556;55.748;13.194;2022-11-20T04:27:16;1.93;;;1.83;;
11771;SDS011;12556;55.748;13.194;2022-11-20T04:29:43;2.50;;;1.90;;
11771;SDS011;12556;55.748;13.194;2022-11-20T04:32:10;1.93;;;1.77;;
11771;SDS011;12556;55.748;13.194;2022-11-20T04:34:36;2.43;;;2.10;;
11771;SDS011;12556;55.748;13.194;2022-11-20T04:37:03;2.80;;;2.10;;
11771;SDS011;12556;55.748;13.194;2022-11-20T04:39:30;2.10;;;1.90;;
11771;SDS011;12556;55.748;13.194;2022-11-20T04:41:58;1.93;;;1.80;;
11771;SDS011;12556;55.748;13.194;2022-11-20T04:44:43;2.00;;;1.90;;
11771;SDS011;12556;55.748;13.194;2022-11-20T04:47:09;2.13;;;1.87;;
11771;SDS011;12556;55.748;13.194;2022-11-20T04:49:36;2.07;;;1.90;;
11771;SDS011;12556;55.748;13.194;2022-11-20T04:52:03;1.70;;;1.60;;
11771;SDS011;12556;55.748;13.194;2022-11-20T04:54:30;3.83;;;2.20;;
11771;SDS011;12556;55.748;13.194;2022-11-20T04:56:58;2.10;;;1.90;;
11771;SDS011;12556;55.748;13.194;2022-11-20T04:59:25;2.07;;;1.87;;
11771;SDS011;12556;55.748;13.194;2022-11-20T05:01:52;2.17;;;1.97;;
11771;SDS011;12556;55.748;13.194;2022-11-20T05:04:18;2.17;;;1.73;;
11771;SDS011;12556;55.748;13.194;2022-11-20T05:06:46;2.30;;;2.10;;
11771;SDS011;12556;55.748;13.194;2022-11-20T05:09:13;3.30;;;3.00;;
11771;SDS011;12556;55.748;13.194;2022-11-20T05:11:39;4.23;;;3.03;;
11771;SDS011;12556;55.748;13.194;2022-11-20T05:14:08;4.60;;;3.10;;
11771;SDS011;12556;55.748;13.194;2022-11-20T05:16:35;4.37;;;3.80;;
11771;SDS011;12556;55.748;13.194;2022-11-20T05:19:01;2.90;;;2.63;;
11771;SDS011;12556;55.748;13.194;2022-11-20T05:21:29;3.37;;;2.63;;
11771;SDS011;12556;55.748;13.194;2022-11-20T05:23:57;3.07;;;2.77;;
11771;SDS011;12556;55.748;13.194;2022-11-20T05:26:24;2.60;;;2.40;;
11771;SDS011;12556;55.748;13.194;2022-11-20T05:28:51;2.53;;;2.33;;
11771;SDS011;12556;55.748;13.194;2022-11-20T05:31:19;3.40;;;2.40;;
11771;SDS011;12556;55.748;13.194;2022-11-20T05:33:47;3.07;;;2.77;;
11771;SDS011;12556;55.748;13.194;2022-11-20T05:36:15;3.20;;;2.90;;
11771;SDS011;12556;55.748;13.194;2022-11-20T05:38:42;3.10;;;2.80;;
11771;SDS011;12556;55.748;13.194;2022-11-20T05:41:10;3.13;;;2.37;;
11771;SDS011;12556;55.748;13.194;2022-11-20T05:43:39;2.97;;;2.77;;
11771;SDS011;12556;55.748;13.194;2022-11-20T05:46:07;2.50;;;2.30;;
11771;SDS011;12556;55.748;13.194;2022-11-20T05:48:38;5.13;;;2.83;;
11771;SDS011;12556;55.748;13.194;2022-11-20T05:51:06;3.13;;;2.47;;
11771;SDS011;12556;55.748;13.194;2022-11-20T05:53:34;2.23;;;2.03;;
11771;SDS011;12556;55.748;13.194;2022-11-20T05:56:02;2.13;;;1.93;;
11771;SDS011;12556;55.748;13.194;2022-11-20T05:58:31;3.90;;;2.20;;
11771;SDS011;12556;55.748;13.194;2022-11-20T06:01:02;2.83;;;1.80;;
11771;SDS011;12556;55.748;13.194;2022-11-20T06:03:31;2.00;;;1.90;;
11771;SDS011;12556;55.748;13.194;2022-11-20T06:05:59;1.80;;;1.70;;
11771;SDS011;12556;55.748;13.194;2022-11-20T06:08:27;2.47;;;2.27;;
11771;SDS011;12556;55.748;13.194;2022-11-20T06:10:54;2.50;;;2.30;;
11771;SDS011;12556;55.748;13.194;2022-11-20T06:13:21;2.70;;;2.50;;
11771;SDS011;12556;55.748;13.194;2022-11-20T06:15:48;3.00;;;2.33;;
11771;SDS011;12556;55.748;13.194;2022-11-20T06:18:15;2.10;;;1.97;;
11771;SDS011;12556;55.748;13.194;2022-11-20T06:20:43;1.93;;;1.83;;
11771;SDS011;12556;55.748;13.194;2022-11-20T06:23:11;1.90;;;1.80;;
11771;SDS011;12556;55.748;13.194;2022-11-20T06:25:38;2.53;;;2.03;;
11771;SDS011;12556;55.748;13.194;2022-11-20T06:28:05;2.37;;;2.10;;
11771;SDS011;12556;55.748;13.194;2022-11-20T06:30:32;2.70;;;2.03;;
11771;SDS011;12556;55.748;13.194;2022-11-20T06:32:59;2.57;;;2.30;;
11771;SDS011;12556;55.748;13.194;2022-11-20T06:35:26;3.50;;;2.33;;
11771;SDS011;12556;55.748;13.194;2022-11-20T06:37:53;2.77;;;2.57;;
11771;SDS011;12556;55.748;13.194;2022-11-20T06:40:21;4.30;;;2.60;;
11771;SDS011;12556;55.748;13.194;2022-11-20T06:42:48;1.90;;;1.80;;
11771;SDS011;12556;55.748;13.194;2022-11-20T06:45:14;3.00;;;2.10;;
11771;SDS011;12556;55.748;13.194;2022-11-20T06:47:41;2.27;;;2.07;;
11771;SDS011;12556;55.748;13.194;2022-11-20T06:50:08;4.70;;;1.73;;
11771;SDS011;12556;55.748;13.194;2022-11-20T06:52:35;1.90;;;1.80;;
11771;SDS011;12556;55.748;13.194;2022-11-20T06:55:02;2.20;;;2.00;;
11771;SDS011;12556;55.748;13.194;2022-11-20T06:57:31;2.50;;;2.27;;
11771;SDS011;12556;55.748;13.194;2022-11-20T06:59:58;2.50;;;2.00;;
11771;SDS011;12556;55.748;13.194;2022-11-20T07:02:25;2.30;;;2.10;;
11771;SDS011;12556;55.748;13.194;2022-11-20T07:04:52;4.17;;;2.53;;
11771;SDS011;12556;55.748;13.194;2022-11-20T07:07:19;2.63;;;2.43;;
11771;SDS011;12556;55.748;13.194;2022-11-20T07:09:46;2.53;;;2.30;;
11771;SDS011;12556;55.748;13.194;2022-11-20T07:12:13;2.77;;;2.50;;
11771;SDS011;12556;55.748;13.194;2022-11-20T07:14:41;4.03;;;3.10;;
11771;SDS011;12556;55.748;13.194;2022-11-20T07:17:08;3.53;;;3.23;;
11771;SDS011;12556;55.748;13.194;2022-11-20T07:19:35;4.10;;;3.30;;
11771;SDS011;12556;55.748;13.194;2022-11-20T07:22:01;2.87;;;2.47;;
11771;SDS011;12556;55.748;13.194;2022-11-20T07:24:28;3.03;;;2.73;;
11771;SDS011;12556;55.748;13.194;2022-11-20T07:26:55;2.70;;;2.40;;
11771;SDS011;12556;55.748;13.194;2022-11-20T07:29:22;2.97;;;2.67;;
11771;SDS011;12556;55.748;13.194;2022-11-20T07:31:50;2.80;;;2.50;;
11771;SDS011;12556;55.748;13.194;2022-11-20T07:34:17;3.27;;;2.83;;
11771;SDS011;12556;55.748;13.194;2022-11-20T07:36:44;3.10;;;2.80;;
11771;SDS011;12556;55.748;13.194;2022-11-20T07:39:11;2.80;;;2.60;;
11771;SDS011;12556;55.748;13.194;2022-11-20T07:41:38;4.10;;;3.10;;
11771;SDS011;12556;55.748;13.194;2022-11-20T07:44:05;3.63;;;2.97;;
11771;SDS011;12556;55.748;13.194;2022-11-20T07:46:32;3.27;;;2.97;;
11771;SDS011;12556;55.748;13.194;2022-11-20T07:49:00;3.50;;;3.03;;
11771;SDS011;12556;55.748;13.194;2022-11-20T07:51:27;3.77;;;2.90;;
11771;SDS011;12556;55.748;13.194;2022-11-20T07:53:54;2.53;;;2.33;;
11771;SDS011;12556;55.748;13.194;2022-11-20T07:56:21;2.30;;;2.10;;
11771;SDS011;12556;55.748;13.194;2022-11-20T07:58:48;3.57;;;2.63;;
11771;SDS011;12556;55.748;13.194;2022-11-20T08:01:15;2.43;;;2.23;;
11771;SDS011;12556;55.748;13.194;2022-11-20T08:03:42;2.63;;;2.43;;
11771;SDS011;12556;55.748;13.194;2022-11-20T08:06:10;3.87;;;2.30;;
11771;SDS011;12556;55.748;13.194;2022-11-20T08:08:37;2.93;;;2.53;;
11771;SDS011;12556;55.748;13.194;2022-11-20T08:11:04;3.40;;;2.50;;
11771;SDS011;12556;55.748;13.194;2022-11-20T08:13:54;3.07;;;2.77;;
11771;SDS011;12556;55.748;13.194;2022-11-20T08:16:39;2.67;;;2.43;;
11771;SDS011;12556;55.748;13.194;2022-11-20T08:19:06;2.50;;;2.30;;
11771;SDS011;12556;55.748;13.194;2022-11-20T08:21:35;2.90;;;2.70;;
11771;SDS011;12556;55.748;13.194;2022-11-20T08:24:01;2.57;;;2.37;;
11771;SDS011;12556;55.748;13.194;2022-11-20T08:26:29;2.87;;;2.57;;
11771;SDS011;12556;55.748;13.194;2022-11-20T08:28:56;2.83;;;2.63;;
11771;SDS011;12556;55.748;13.194;2022-11-20T08:31:23;2.73;;;2.53;;
11771;SDS011;12556;55.748;13.194;2022-11-20T08:33:51;3.57;;;2.80;;
11771;SDS011;12556;55.748;13.194;2022-11-20T08:36:18;3.17;;;2.73;;
11771;SDS011;12556;55.748;13.194;2022-11-20T08:38:48;2.70;;;2.50;;
11771;SDS011;12556;55.748;13.194;2022-11-20T08:41:16;3.40;;;3.10;;
11771;SDS011;12556;55.748;13.194;2022-11-20T08:43:53;3.30;;;3.00;;
11771;SDS011;12556;55.748;13.194;2022-11-20T08:46:22;3.47;;;3.17;;
11771;SDS011;12556;55.748;13.194;2022-11-20T08:48:49;3.20;;;2.90;;
11771;SDS011;12556;55.748;13.194;2022-11-20T08:51:16;4.17;;;3.33;;
11771;SDS011;12556;55.748;13.194;2022-11-20T08:53:44;6.07;;;3.30;;
11771;SDS011;12556;55.748;13.194;2022-11-20T08:56:14;3.80;;;3.50;;
11771;SDS011;12556;55.748;13.194;2022-11-20T08:58:42;3.80;;;3.20;;
11771;SDS011;12556;55.748;13.194;2022-11-20T09:01:08;4.03;;;3.60;;
11771;SDS011;12556;55.748;13.194;2022-11-20T09:03:36;3.63;;;3.33;;
11771;SDS011;12556;55.748;13.194;2022-11-20T09:06:04;3.17;;;2.87;;
11771;SDS011;12556;55.748;13.194;2022-11-20T09:08:32;3.90;;;3.50;;
11771;SDS011;12556;55.748;13.194;2022-11-20T09:11:00;3.70;;;3.33;;
11771;SDS011;12556;55.748;13.194;2022-11-20T09:13:29;5.97;;;4.10;;
11771;SDS011;12556;55.748;13.194;2022-11-20T09:15:57;3.80;;;3.30;;
11771;SDS011;12556;55.748;13.194;2022-11-20T09:18:25;3.07;;;2.77;;
11771;SDS011;12556;55.748;13.194;2022-11-20T09:20:55;3.60;;;2.93;;
11771;SDS011;12556;55.748;13.194;2022-11-20T09:23:22;3.43;;;3.00;;
11771;SDS011;12556;55.748;13.194;2022-11-20T09:25:49;5.17;;;3.53;;
11771;SDS011;12556;55.748;13.194;2022-11-20T09:28:17;3.50;;;3.20;;
11771;SDS011;12556;55.748;13.194;2022-11-20T09:30:46;3.20;;;3.00;;
11771;SDS011;12556;55.748;13.194;2022-11-20T09:33:12;2.67;;;2.47;;
11771;SDS011;12556;55.748;13.194;2022-11-20T09:35:39;3.43;;;2.97;;
11771;SDS011;12556;55.748;13.194;2022-11-20T09:38:06;3.30;;;3.00;;
11771;SDS011;12556;55.748;13.194;2022-11-20T09:40:34;3.30;;;3.00;;
11771;SDS011;12556;55.748;13.194;2022-11-20T09:43:05;3.20;;;2.83;;
11771;SDS011;12556;55.748;13.194;2022-11-20T09:45:39;4.23;;;3.43;;
11771;SDS011;12556;55.748;13.194;2022-11-20T09:48:18;3.70;;;3.40;;
11771;SDS011;12556;55.748;13.194;2022-11-20T09:51:05;3.73;;;3.43;;
11771;SDS011;12556;55.748;13.194;2022-11-20T09:53:40;3.77;;;3.43;;
11771;SDS011;12556;55.748;13.194;2022-11-20T09:56:18;4.53;;;4.20;;
11771;SDS011;12556;55.748;13.194;2022-11-20T09:58:47;5.40;;;4.60;;
11771;SDS011;12556;55.748;13.194;2022-11-20T10:01:18;6.00;;;5.30;;
11771;SDS011;12556;55.748;13.194;2022-11-20T10:03:52;7.07;;;5.20;;
11771;SDS011;12556;55.748;13.194;2022-11-20T10:06:24;6.40;;;5.27;;
11771;SDS011;12556;55.748;13.194;2022-11-20T10:08:58;3.97;;;3.67;;
11771;SDS011;12556;55.748;13.194;2022-11-20T10:11:33;3.67;;;3.10;;
11771;SDS011;12556;55.748;13.194;2022-11-20T10:14:15;2.67;;;2.47;;
11771;SDS011;12556;55.748;13.194;2022-11-20T10:16:55;3.00;;;2.70;;
11771;SDS011;12556;55.748;13.194;2022-11-20T10:19:36;3.13;;;2.83;;
11771;SDS011;12556;55.748;13.194;2022-11-20T10:22:25;3.03;;;2.47;;
11771;SDS011;12556;55.748;13.194;2022-11-20T10:25:02;2.70;;;2.50;;
11771;SDS011;12556;55.748;13.194;2022-11-20T10:27:42;3.00;;;2.70;;
11771;SDS011;12556;55.748;13.194;2022-11-20T10:30:26;3.07;;;2.77;;
11771;SDS011;12556;55.748;13.194;2022-11-20T10:32:58;3.53;;;2.50;;
11771;SDS011;12556;55.748;13.194;2022-11-20T10:35:32;2.97;;;2.53;;
11771;SDS011;12556;55.748;13.194;2022-11-20T10:38:03;3.50;;;2.73;;
11771;SDS011;12556;55.748;13.194;2022-11-20T10:40:37;2.50;;;2.30;;
11771;SDS011;12556;55.748;13.194;2022-11-20T10:43:08;2.40;;;2.20;;
11771;SDS011;12556;55.748;13.194;2022-11-20T10:45:43;2.97;;;2.60;;
11771;SDS011;12556;55.748;13.194;2022-11-20T10:48:16;3.57;;;3.27;;
11771;SDS011;12556;55.748;13.194;2022-11-20T10:50:49;5.80;;;3.10;;
11771;SDS011;12556;55.748;13.194;2022-11-20T10:53:40;3.93;;;3.53;;
11771;SDS011;12556;55.748;13.194;2022-11-20T10:56:16;4.13;;;3.60;;
11771;SDS011;12556;55.748;13.194;2022-11-20T10:58:48;5.47;;;3.20;;
11771;SDS011;12556;55.748;13.194;2022-11-20T11:01:39;5.53;;;3.70;;
11771;SDS011;12556;55.748;13.194;2022-11-20T11:04:12;5.70;;;3.30;;
11771;SDS011;12556;55.748;13.194;2022-11-20T11:06:56;3.60;;;2.80;;
11771;SDS011;12556;55.748;13.194;2022-11-20T11:09:32;3.50;;;3.10;;
11771;SDS011;12556;55.748;13.194;2022-11-20T11:12:01;4.63;;;3.10;;
11771;SDS011;12556;55.748;13.194;2022-11-20T11:14:41;2.87;;;2.67;;
11771;SDS011;12556;55.748;13.194;2022-11-20T11:17:17;3.67;;;2.80;;
11771;SDS011;12556;55.748;13.194;2022-11-20T11:20:03;2.97;;;2.70;;
11771;SDS011;12556;55.748;13.194;2022-11-20T11:22:42;2.50;;;2.30;;
11771;SDS011;12556;55.748;13.194;2022-11-20T11:25:17;3.67;;;2.63;;
11771;SDS011;12556;55.748;13.194;2022-11-20T11:27:50;4.10;;;2.80;;
11771;SDS011;12556;55.748;13.194;2022-11-20T11:30:18;5.07;;;2.77;;
11771;SDS011;12556;55.748;13.194;2022-11-20T11:32:46;2.87;;;2.57;;
11771;SDS011;12556;55.748;13.194;2022-11-20T11:35:22;2.87;;;2.43;;
11771;SDS011;12556;55.748;13.194;2022-11-20T11:37:51;3.90;;;2.57;;
11771;SDS011;12556;55.748;13.194;2022-11-20T11:40:20;2.30;;;2.13;;
11771;SDS011;12556;55.748;13.194;2022-11-20T11:42:53;3.07;;;2.63;;
11771;SDS011;12556;55.748;13.194;2022-11-20T11:45:22;2.60;;;2.40;;
11771;SDS011;12556;55.748;13.194;2022-11-20T11:47:49;3.43;;;2.33;;
11771;SDS011;12556;55.748;13.194;2022-11-20T11:50:19;3.00;;;2.73;;
11771;SDS011;12556;55.748;13.194;2022-11-20T11:52:55;3.00;;;2.70;;
11771;SDS011;12556;55.748;13.194;2022-11-20T11:55:31;3.60;;;2.67;;
11771;SDS011;12556;55.748;13.194;2022-11-20T12:01:01;3.07;;;2.20;;
11771;SDS011;12556;55.748;13.194;2022-11-20T12:03:35;2.23;;;1.90;;
11771;SDS011;12556;55.748;13.194;2022-11-20T12:06:08;2.20;;;2.00;;
11771;SDS011;12556;55.748;13.194;2022-11-20T12:08:41;2.27;;;2.07;;
11771;SDS011;12556;55.748;13.194;2022-11-20T12:11:14;2.23;;;2.03;;
11771;SDS011;12556;55.748;13.194;2022-11-20T12:13:55;2.83;;;2.30;;
11771;SDS011;12556;55.748;13.194;2022-11-20T12:16:29;2.50;;;2.30;;
11771;SDS011;12556;55.748;13.194;2022-11-20T12:18:59;2.63;;;2.20;;
11771;SDS011;12556;55.748;13.194;2022-11-20T12:21:31;2.10;;;2.00;;
11771;SDS011;12556;55.748;13.194;2022-11-20T12:24:08;2.43;;;2.23;;
11771;SDS011;12556;55.748;13.194;2022-11-20T12:27:00;2.63;;;2.27;;
11771;SDS011;12556;55.748;13.194;2022-11-20T12:29:38;2.77;;;2.20;;
11771;SDS011;12556;55.748;13.194;2022-11-20T12:32:24;2.80;;;2.37;;
11771;SDS011;12556;55.748;13.194;2022-11-20T12:35:10;4.10;;;2.63;;
11771;SDS011;12556;55.748;13.194;2022-11-20T12:37:52;2.43;;;2.23;;
11771;SDS011;12556;55.748;13.194;2022-11-20T12:40:32;2.60;;;2.30;;
11771;SDS011;12556;55.748;13.194;2022-11-20T12:43:09;2.57;;;2.27;;
11771;SDS011;12556;55.748;13.194;2022-11-20T12:46:05;3.27;;;2.40;;
11771;SDS011;12556;55.748;13.194;2022-11-20T12:48:42;3.00;;;2.70;;
11771;SDS011;12556;55.748;13.194;2022-11-20T12:51:39;3.37;;;2.70;;
11771;SDS011;12556;55.748;13.194;2022-11-20T12:54:31;2.63;;;2.43;;
11771;SDS011;12556;55.748;13.194;2022-11-20T12:57:15;2.40;;;2.17;;
11771;SDS011;12556;55.748;13.194;2022-11-20T12:59:50;2.30;;;2.10;;
11771;SDS011;12556;55.748;13.194;2022-11-20T13:02:27;2.33;;;2.17;;
11771;SDS011;12556;55.748;13.194;2022-11-20T13:05:10;2.80;;;2.33;;
11771;SDS011;12556;55.748;13.194;2022-11-20T13:07:45;2.87;;;2.40;;
11771;SDS011;12556;55.748;13.194;2022-11-20T13:10:16;2.57;;;2.37;;
11771;SDS011;12556;55.748;13.194;2022-11-20T13:12:49;2.63;;;2.40;;
11771;SDS011;12556;55.748;13.194;2022-11-20T13:15:23;3.37;;;2.70;;
11771;SDS011;12556;55.748;13.194;2022-11-20T13:18:02;2.47;;;2.27;;
11771;SDS011;12556;55.748;13.194;2022-11-20T13:20:34;2.40;;;2.20;;
11771;SDS011;12556;55.748;13.194;2022-11-20T13:23:02;2.77;;;2.20;;
11771;SDS011;12556;55.748;13.194;2022-11-20T13:25:31;2.83;;;2.63;;
11771;SDS011;12556;55.748;13.194;2022-11-20T13:27:59;4.23;;;2.43;;
11771;SDS011;12556;55.748;13.194;2022-11-20T13:30:28;2.43;;;2.17;;
11771;SDS011;12556;55.748;13.194;2022-11-20T13:32:56;2.20;;;2.00;;
11771;SDS011;12556;55.748;13.194;2022-11-20T13:35:28;2.40;;;2.20;;
11771;SDS011;12556;55.748;13.194;2022-11-20T13:38:01;2.40;;;2.20;;
11771;SDS011;12556;55.748;13.194;2022-11-20T13:40:32;2.47;;;2.00;;
11771;SDS011;12556;55.748;13.194;2022-11-20T13:43:18;3.00;;;2.70;;
11771;SDS011;12556;55.748;13.194;2022-11-20T13:45:56;2.80;;;2.20;;
11771;SDS011;12556;55.748;13.194;2022-11-20T13:48:26;2.63;;;2.30;;
11771;SDS011;12556;55.748;13.194;2022-11-20T13:51:04;2.57;;;2.37;;
11771;SDS011;12556;55.748;13.194;2022-11-20T13:53:51;2.30;;;2.10;;
11771;SDS011;12556;55.748;13.194;2022-11-20T13:56:57;3.83;;;2.57;;
11771;SDS011;12556;55.748;13.194;2022-11-20T13:59:36;2.77;;;2.57;;
11771;SDS011;12556;55.748;13.194;2022-11-20T14:02:16;2.93;;;2.10;;
11771;SDS011;12556;55.748;13.194;2022-11-20T14:04:47;3.63;;;2.83;;
11771;SDS011;12556;55.748;13.194;2022-11-20T14:07:17;3.23;;;2.33;;
11771;SDS011;12556;55.748;13.194;2022-11-20T14:09:54;3.77;;;2.60;;
11771;SDS011;12556;55.748;13.194;2022-11-20T14:12:27;3.07;;;2.80;;
11771;SDS011;12556;55.748;13.194;2022-11-20T14:14:56;2.90;;;2.60;;
11771;SDS011;12556;55.748;13.194;2022-11-20T14:17:24;2.50;;;2.30;;
11771;SDS011;12556;55.748;13.194;2022-11-20T14:19:58;2.60;;;2.40;;
11771;SDS011;12556;55.748;13.194;2022-11-20T14:22:28;3.17;;;2.77;;
11771;SDS011;12556;55.748;13.194;2022-11-20T14:25:03;2.50;;;2.30;;
11771;SDS011;12556;55.748;13.194;2022-11-20T14:27:34;2.77;;;2.40;;
11771;SDS011;12556;55.748;13.194;2022-11-20T14:30:04;2.47;;;2.27;;
11771;SDS011;12556;55.748;13.194;2022-11-20T14:32:32;4.80;;;2.70;;
11771;SDS011;12556;55.748;13.194;2022-11-20T14:35:03;2.70;;;2.50;;
11771;SDS011;12556;55.748;13.194;2022-11-20T14:37:36;2.70;;;2.50;;
11771;SDS011;12556;55.748;13.194;2022-11-20T14:40:14;2.53;;;2.33;;
11771;SDS011;12556;55.748;13.194;2022-11-20T14:42:51;2.83;;;2.60;;
11771;SDS011;12556;55.748;13.194;2022-11-20T14:45:18;3.10;;;2.23;;
11771;SDS011;12556;55.748;13.194;2022-11-20T14:47:45;3.07;;;2.77;;
11771;SDS011;12556;55.748;13.194;2022-11-20T14:50:13;3.73;;;3.20;;
11771;SDS011;12556;55.748;13.194;2022-11-20T14:52:49;4.07;;;3.27;;
11771;SDS011;12556;55.748;13.194;2022-11-20T14:55:24;3.27;;;2.97;;